createdAt,value
2019-05-15T00:00:44.929Z,4.61
2019-05-15T00:01:44.850Z,4.64
2019-05-15T00:02:44.764Z,4.61
2019-05-15T00:03:44.681Z,4.55
2019-05-15T00:04:44.600Z,4.58
2019-05-15T00:05:44.522Z,4.56
2019-05-15T00:06:44.435Z,4.62
2019-05-15T00:07:44.454Z,4.73
2019-05-15T00:08:44.275Z,4.65
2019-05-15T00:09:44.188Z,4.62
2019-05-15T00:10:44.107Z,4.62
2019-05-15T00:11:44.024Z,4.62
2019-05-15T00:12:44.041Z,4.65
2019-05-15T00:13:43.858Z,4.62
2019-05-15T00:14:48.486Z,4.61
2019-05-15T00:15:43.711Z,4.59
2019-05-15T00:16:43.613Z,4.59
2019-05-15T00:17:43.530Z,4.56
2019-05-15T00:18:43.448Z,4.59
2019-05-15T00:19:43.365Z,4.66
2019-05-15T00:20:43.286Z,4.72
2019-05-15T00:21:43.201Z,4.76
2019-05-15T00:22:43.119Z,4.88
2019-05-15T00:23:43.038Z,4.84
2019-05-15T00:24:42.954Z,4.85
2019-05-15T00:25:42.873Z,4.88
2019-05-15T00:26:42.790Z,4.85
2019-05-15T00:27:42.815Z,4.77
2019-05-15T00:28:42.626Z,4.77
2019-05-15T00:29:42.543Z,4.73
2019-05-15T00:30:42.464Z,4.65
2019-05-15T00:32:42.297Z,4.54
2019-05-15T00:33:42.214Z,4.54
2019-05-15T00:34:42.132Z,4.52
2019-05-15T00:35:42.051Z,4.48
2019-05-15T00:36:41.967Z,4.28
2019-05-15T00:37:41.885Z,4.29
2019-05-15T00:38:41.803Z,4.22
2019-05-15T00:39:41.720Z,4.10
2019-05-15T00:40:41.641Z,4.07
2019-05-15T00:41:51.410Z,4.25
2019-05-15T00:42:41.474Z,4.18
2019-05-15T00:43:41.493Z,4.20
2019-05-15T00:44:41.308Z,4.19
2019-05-15T00:45:44.275Z,4.28
2019-05-15T00:46:41.144Z,4.26
2019-05-15T00:47:41.061Z,4.12
2019-05-15T00:48:40.978Z,4.15
2019-05-15T00:49:40.897Z,4.08
2019-05-15T00:50:40.814Z,4.08
2019-05-15T00:51:40.735Z,4.19
2019-05-15T00:53:33.133Z,4.22
2019-05-15T00:54:33.150Z,4.16
2019-05-15T00:55:32.995Z,4.10
2019-05-15T00:56:32.889Z,4.05
2019-05-15T00:57:32.801Z,4.02
2019-05-15T00:58:32.720Z,3.97
2019-05-15T00:59:32.644Z,3.87
2019-05-15T01:00:32.556Z,3.94
2019-05-15T01:01:32.495Z,3.94
2019-05-15T01:02:32.390Z,4.01
2019-05-15T01:03:32.307Z,4.02
2019-05-15T01:04:32.226Z,4.00
2019-05-15T01:05:32.142Z,4.10
2019-05-15T01:06:32.062Z,3.98
2019-05-15T01:07:31.978Z,4.04
2019-05-15T01:08:31.895Z,4.10
2019-05-15T01:09:31.839Z,3.97
2019-05-15T01:10:31.728Z,3.89
2019-05-15T01:11:31.647Z,3.98
2019-05-15T01:12:31.564Z,4.00
2019-05-15T01:15:03.985Z,3.89
2019-05-15T01:16:03.902Z,3.92
2019-05-15T01:17:03.821Z,4.04
2019-05-15T01:18:03.736Z,3.98
2019-05-15T01:19:03.653Z,3.97
2019-05-15T01:20:03.570Z,4.07
2019-05-15T01:21:03.604Z,4.16
2019-05-15T01:22:03.404Z,4.07
2019-05-15T01:25:28.948Z,4.10
2019-05-15T01:26:28.868Z,4.18
2019-05-15T01:27:29.235Z,4.18
2019-05-15T01:28:29.050Z,4.02
2019-05-15T01:29:40.585Z,4.10
2019-05-15T01:30:28.733Z,4.15
2019-05-15T01:31:28.689Z,3.97
2019-05-15T01:32:28.531Z,3.97
2019-05-15T01:33:28.480Z,3.94
2019-05-15T01:34:29.400Z,3.97
2019-05-15T01:35:28.705Z,3.97
2019-05-15T01:36:28.733Z,3.98
2019-05-15T01:37:28.291Z,3.86
2019-05-15T01:38:28.138Z,3.82
2019-05-15T01:39:29.046Z,3.75
2019-05-15T01:40:28.933Z,3.80
2019-05-15T01:41:28.177Z,3.80
2019-05-15T01:42:28.017Z,3.80
2019-05-15T01:43:29.117Z,3.68
2019-05-15T01:44:28.743Z,3.72
2019-05-15T01:46:09.766Z,3.72
2019-05-15T01:47:09.683Z,3.66
2019-05-15T01:48:09.699Z,3.64
2019-05-15T01:49:09.516Z,3.65
2019-05-15T01:50:09.595Z,3.56
2019-05-15T01:51:09.532Z,3.56
2019-05-15T01:52:09.269Z,3.57
2019-05-15T01:54:09.238Z,3.47
2019-05-15T01:55:09.466Z,3.39
2019-05-15T01:56:08.936Z,3.34
2019-05-15T01:57:09.389Z,3.37
2019-05-15T01:58:09.307Z,3.43
2019-05-15T01:59:08.846Z,3.32
2019-05-15T02:00:08.861Z,3.37
2019-05-15T02:01:08.518Z,3.31
2019-05-15T02:02:09.604Z,3.31
2019-05-15T02:03:09.794Z,3.39
2019-05-15T02:04:08.432Z,3.32
2019-05-15T02:05:08.715Z,3.34
2019-05-15T02:06:08.435Z,3.35
2019-05-15T02:07:08.294Z,3.22
2019-05-15T02:08:08.352Z,3.22
2019-05-15T02:09:08.375Z,3.27
2019-05-15T02:10:09.096Z,3.22
2019-05-15T02:11:09.079Z,3.21
2019-05-15T02:12:08.711Z,3.21
2019-05-15T02:13:08.535Z,3.22
2019-05-15T02:14:08.250Z,3.14
2019-05-15T02:15:08.593Z,3.22
2019-05-15T02:16:08.360Z,3.16
2019-05-15T02:17:08.455Z,3.17
2019-05-15T02:18:08.417Z,3.22
2019-05-15T02:19:08.969Z,3.16
2019-05-15T02:20:08.379Z,3.22
2019-05-15T02:21:09.946Z,3.22
2019-05-15T02:22:08.370Z,3.16
2019-05-15T02:23:11.438Z,3.22
2019-05-15T02:24:07.942Z,3.16
2019-05-15T02:25:08.636Z,3.16
2019-05-15T02:26:07.975Z,3.17
2019-05-15T02:27:08.863Z,3.24
2019-05-15T02:28:06.270Z,3.21
2019-05-15T02:29:07.764Z,3.16
2019-05-15T02:30:18.273Z,3.27
2019-05-15T02:31:09.985Z,3.21
2019-05-15T02:32:05.945Z,3.22
2019-05-15T02:33:05.854Z,3.25
2019-05-15T02:34:05.774Z,3.19
2019-05-15T02:35:05.688Z,3.24
2019-05-15T02:36:05.604Z,3.22
2019-05-15T02:37:08.784Z,3.11
2019-05-15T02:38:05.438Z,3.11
2019-05-15T02:39:08.684Z,3.24
2019-05-15T02:40:05.270Z,3.14
2019-05-15T02:41:05.186Z,3.11
2019-05-15T02:42:05.105Z,3.06
2019-05-15T02:43:05.022Z,3.03
2019-05-15T02:44:04.937Z,3.07
2019-05-15T02:45:04.855Z,2.99
2019-05-15T02:46:04.771Z,3.06
2019-05-15T02:47:04.687Z,2.98
2019-05-15T02:48:04.605Z,3.06
2019-05-15T02:49:04.520Z,2.89
2019-05-15T02:50:04.436Z,2.86
2019-05-15T02:51:04.352Z,2.88
2019-05-15T02:52:04.268Z,2.88
2019-05-15T02:53:04.188Z,2.86
2019-05-15T02:54:04.102Z,2.81
2019-05-15T02:55:04.023Z,2.78
2019-05-15T02:56:03.935Z,2.86
2019-05-15T02:57:03.856Z,2.88
2019-05-15T02:58:03.770Z,2.89
2019-05-15T02:59:03.684Z,2.85
2019-05-15T03:00:03.601Z,2.89
2019-05-15T03:01:03.517Z,2.88
2019-05-15T03:02:03.434Z,2.95
2019-05-15T03:03:03.365Z,2.81
2019-05-15T03:04:03.267Z,2.74
2019-05-15T03:05:03.184Z,2.77
2019-05-15T03:06:03.098Z,2.77
2019-05-15T03:07:03.017Z,2.80
2019-05-15T03:08:02.942Z,2.78
2019-05-15T03:09:02.848Z,2.80
2019-05-15T03:10:02.766Z,2.70
2019-05-15T03:11:02.681Z,2.85
2019-05-15T03:12:02.598Z,2.91
2019-05-15T03:13:02.520Z,2.81
2019-05-15T03:14:02.430Z,2.80
2019-05-15T03:15:02.357Z,2.88
2019-05-15T03:16:02.273Z,2.93
2019-05-15T03:17:02.181Z,2.89
2019-05-15T03:18:02.195Z,2.88
2019-05-15T03:19:02.019Z,2.91
2019-05-15T03:20:01.930Z,2.89
2019-05-15T03:21:01.851Z,2.85
2019-05-15T03:22:01.766Z,2.74
2019-05-15T03:23:01.677Z,2.67
2019-05-15T03:24:01.694Z,2.73
2019-05-15T03:25:01.511Z,2.71
2019-05-15T03:26:04.369Z,2.70
2019-05-15T03:27:01.347Z,2.62
2019-05-15T03:28:01.270Z,2.67
2019-05-15T03:29:01.174Z,2.68
2019-05-15T03:30:01.091Z,2.57
2019-05-15T03:31:17.959Z,2.56
2019-05-15T03:32:17.380Z,2.66
2019-05-15T03:33:07.958Z,2.63
2019-05-15T03:34:02.633Z,2.60
2019-05-15T03:35:04.782Z,2.73
2019-05-15T03:36:02.744Z,2.70
2019-05-15T03:37:03.230Z,2.71
2019-05-15T03:38:00.422Z,2.73
2019-05-15T03:39:00.340Z,2.66
2019-05-15T03:40:00.268Z,2.66
2019-05-15T03:41:00.171Z,2.63
2019-05-15T03:42:00.093Z,2.68
2019-05-15T03:43:00.003Z,2.62
2019-05-15T03:43:59.923Z,2.67
2019-05-15T03:44:59.873Z,2.73
2019-05-15T03:46:01.633Z,2.68
2019-05-15T03:46:59.872Z,2.60
2019-05-15T03:47:59.749Z,2.53
2019-05-15T03:49:00.413Z,2.68
2019-05-15T03:50:00.121Z,2.63
2019-05-15T03:50:59.904Z,2.49
2019-05-15T03:51:59.250Z,2.57
2019-05-15T03:52:59.164Z,2.59
2019-05-15T03:54:00.379Z,2.55
2019-05-15T03:54:59.020Z,2.55
2019-05-15T03:55:59.235Z,2.56
2019-05-15T03:56:58.831Z,2.55
2019-05-15T03:57:59.288Z,2.53
2019-05-15T03:58:59.729Z,2.50
2019-05-15T03:59:59.763Z,2.50
2019-05-15T04:01:00.142Z,2.50
2019-05-15T04:01:59.959Z,2.50
2019-05-15T04:02:59.037Z,2.46
2019-05-15T04:03:59.846Z,2.42
2019-05-15T04:05:01.500Z,2.55
2019-05-15T04:06:00.483Z,2.32
2019-05-15T04:06:59.598Z,2.42
2019-05-15T04:07:59.808Z,2.46
2019-05-15T04:08:58.631Z,2.52
2019-05-15T04:09:58.773Z,2.41
2019-05-15T04:10:59.677Z,2.41
2019-05-15T04:12:00.070Z,2.41
2019-05-15T04:13:00.042Z,2.53
2019-05-15T04:13:59.428Z,2.46
2019-05-15T04:14:59.556Z,2.44
2019-05-15T04:15:59.359Z,2.48
2019-05-15T04:16:59.464Z,2.60
2019-05-15T04:18:00.170Z,2.57
2019-05-15T04:18:59.353Z,2.53
2019-05-15T04:19:58.946Z,2.52
2019-05-15T04:20:59.849Z,2.55
2019-05-15T04:21:59.785Z,2.50
2019-05-15T04:22:59.969Z,2.44
2019-05-15T04:23:58.747Z,2.52
2019-05-15T04:24:59.275Z,2.49
2019-05-15T04:25:58.793Z,2.53
2019-05-15T04:26:59.577Z,2.56
2019-05-15T04:27:58.693Z,2.48
2019-05-15T04:28:56.147Z,2.49
2019-05-15T04:29:59.078Z,2.50
2019-05-15T04:30:59.363Z,2.42
2019-05-15T04:32:02.568Z,2.52
2019-05-15T04:32:55.812Z,2.57
2019-05-15T04:33:55.731Z,2.44
2019-05-15T04:34:55.647Z,2.55
2019-05-15T04:35:58.745Z,2.67
2019-05-15T04:36:58.548Z,2.66
2019-05-15T04:37:55.396Z,2.70
2019-05-15T04:38:55.312Z,2.71
2019-05-15T04:39:55.227Z,2.74
2019-05-15T04:40:55.146Z,2.68
2019-05-15T04:41:55.066Z,2.67
2019-05-15T04:42:54.976Z,2.74
2019-05-15T04:43:54.893Z,2.68
2019-05-15T04:44:54.809Z,2.73
2019-05-15T04:45:54.751Z,2.67
2019-05-15T04:46:54.641Z,2.77
2019-05-15T04:47:54.565Z,2.85
2019-05-15T04:48:54.474Z,2.89
2019-05-15T04:49:54.401Z,2.89
2019-05-15T04:50:54.307Z,2.93
2019-05-15T04:51:54.224Z,3.01
2019-05-15T04:52:54.140Z,2.99
2019-05-15T04:53:54.104Z,2.98
2019-05-15T04:54:53.972Z,2.95
2019-05-15T04:55:53.888Z,3.03
2019-05-15T04:56:53.804Z,3.10
2019-05-15T04:57:53.721Z,3.17
2019-05-15T04:58:53.640Z,3.21
2019-05-15T04:59:53.556Z,3.31
2019-05-15T05:00:53.515Z,3.34
2019-05-15T05:02:12.913Z,3.46
2019-05-15T05:02:53.305Z,3.43
2019-05-15T05:03:53.224Z,3.51
2019-05-15T05:04:53.137Z,3.59
2019-05-15T05:05:53.054Z,3.69
2019-05-15T05:06:52.971Z,3.80
2019-05-15T05:07:52.890Z,3.84
2019-05-15T05:08:52.804Z,3.79
2019-05-15T05:09:52.722Z,3.94
2019-05-15T05:10:52.637Z,3.93
2019-05-15T05:11:52.560Z,4.04
2019-05-15T05:12:52.472Z,4.08
2019-05-15T05:13:52.389Z,4.18
2019-05-15T05:14:52.307Z,4.18
2019-05-15T05:15:52.225Z,4.28
2019-05-15T05:16:52.149Z,4.34
2019-05-15T05:17:52.062Z,4.37
2019-05-15T05:18:51.984Z,4.43
2019-05-15T05:19:51.893Z,4.50
2019-05-15T05:20:51.809Z,4.54
2019-05-15T05:21:51.728Z,4.55
2019-05-15T05:22:51.654Z,4.56
2019-05-15T05:23:51.565Z,4.59
2019-05-15T05:24:51.480Z,4.69
2019-05-15T05:25:51.399Z,4.62
2019-05-15T05:26:51.317Z,4.77
2019-05-15T05:27:51.235Z,4.80
2019-05-15T05:28:51.152Z,4.87
2019-05-15T05:29:51.069Z,4.85
2019-05-15T05:30:50.988Z,4.80
2019-05-15T05:31:50.907Z,4.92
2019-05-15T05:32:50.823Z,4.91
2019-05-15T05:33:50.742Z,4.99
2019-05-15T05:34:50.659Z,5.00
2019-05-15T05:35:50.578Z,5.02
2019-05-15T05:36:50.496Z,5.02
2019-05-15T05:37:50.414Z,5.11
2019-05-15T05:38:50.335Z,5.20
2019-05-15T05:40:42.734Z,5.34
2019-05-15T05:41:42.655Z,5.18
2019-05-15T05:42:42.571Z,5.21
2019-05-15T05:43:42.497Z,5.21
2019-05-15T05:44:42.828Z,5.38
2019-05-15T05:45:42.324Z,5.41
2019-05-15T05:46:42.242Z,5.36
2019-05-15T05:47:42.162Z,5.45
2019-05-15T05:48:42.083Z,5.38
2019-05-15T05:49:41.996Z,5.52
2019-05-15T05:50:44.041Z,5.50
2019-05-15T05:51:41.834Z,5.50
2019-05-15T05:52:41.751Z,5.50
2019-05-15T05:53:41.671Z,5.62
2019-05-15T05:54:41.588Z,5.60
2019-05-15T05:55:41.508Z,5.57
2019-05-15T05:56:41.425Z,5.57
2019-05-15T05:57:41.343Z,5.65
2019-05-15T05:58:41.262Z,5.67
2019-05-15T05:59:41.181Z,5.67
2019-05-15T06:00:41.099Z,5.74
2019-05-15T06:01:44.160Z,5.88
2019-05-15T06:02:48.021Z,5.88
2019-05-15T06:03:40.856Z,5.90
2019-05-15T06:04:40.779Z,5.96
2019-05-15T06:05:40.843Z,6.11
2019-05-15T06:06:40.613Z,6.04
2019-05-15T06:07:40.532Z,6.14
2019-05-15T06:08:40.449Z,6.15
2019-05-15T06:09:40.369Z,6.11
2019-05-15T06:10:40.286Z,6.17
2019-05-15T06:11:40.206Z,6.10
2019-05-15T06:12:40.125Z,6.24
2019-05-15T06:13:40.044Z,6.30
2019-05-15T06:14:39.962Z,6.33
2019-05-15T06:15:39.914Z,6.41
2019-05-15T06:16:39.801Z,6.51
2019-05-15T06:17:39.720Z,6.62
2019-05-15T06:18:39.640Z,6.68
2019-05-15T06:19:39.559Z,6.72
2019-05-15T06:20:39.707Z,6.72
2019-05-15T06:21:53.599Z,6.88
2019-05-15T06:22:39.320Z,6.75
2019-05-15T06:23:45.515Z,6.80
2019-05-15T06:24:39.155Z,6.93
2019-05-15T06:25:39.235Z,6.87
2019-05-15T06:26:38.994Z,6.86
2019-05-15T06:27:39.299Z,6.87
2019-05-15T06:28:39.588Z,6.87
2019-05-15T06:29:38.753Z,6.93
2019-05-15T06:30:38.771Z,7.05
2019-05-15T06:31:38.897Z,7.16
2019-05-15T06:32:39.732Z,7.16
2019-05-15T06:33:38.657Z,7.21
2019-05-15T06:34:38.354Z,7.13
2019-05-15T06:35:39.371Z,7.21
2019-05-15T06:36:39.307Z,7.29
2019-05-15T06:37:39.616Z,7.21
2019-05-15T06:38:39.395Z,7.19
2019-05-15T06:39:39.042Z,7.29
2019-05-15T06:40:39.548Z,7.29
2019-05-15T06:41:39.004Z,7.39
2019-05-15T06:42:39.362Z,7.38
2019-05-15T06:43:38.938Z,7.56
2019-05-15T06:44:38.816Z,7.53
2019-05-15T06:45:38.052Z,7.49
2019-05-15T06:46:39.280Z,7.42
2019-05-15T06:47:39.463Z,7.35
2019-05-15T06:48:37.995Z,7.34
2019-05-15T06:49:37.829Z,7.45
2019-05-15T06:50:38.304Z,7.57
2019-05-15T06:51:37.907Z,7.73
2019-05-15T06:52:38.099Z,7.64
2019-05-15T06:53:38.417Z,7.68
2019-05-15T06:54:37.747Z,7.73
2019-05-15T06:55:38.839Z,7.68
2019-05-15T06:56:38.848Z,7.82
2019-05-15T06:57:36.501Z,7.90
2019-05-15T06:58:40.456Z,7.82
2019-05-15T06:59:38.759Z,7.94
2019-05-15T07:00:38.830Z,8.00
2019-05-15T07:01:38.372Z,7.93
2019-05-15T07:02:38.238Z,8.03
2019-05-15T07:03:36.020Z,8.18
2019-05-15T07:04:38.184Z,8.25
2019-05-15T07:05:38.363Z,8.27
2019-05-15T07:06:37.942Z,8.33
2019-05-15T07:07:37.946Z,8.37
2019-05-15T07:08:38.078Z,8.44
2019-05-15T07:09:37.865Z,8.51
2019-05-15T07:10:37.631Z,8.60
2019-05-15T07:11:35.378Z,8.62
2019-05-15T07:12:35.297Z,8.69
2019-05-15T07:13:35.221Z,8.70
2019-05-15T07:14:35.137Z,8.84
2019-05-15T07:15:35.057Z,8.88
2019-05-15T07:16:34.976Z,9.00
2019-05-15T07:17:34.897Z,8.91
2019-05-15T07:18:34.818Z,8.98
2019-05-15T07:19:34.738Z,9.06
2019-05-15T07:20:34.657Z,9.10
2019-05-15T07:21:34.578Z,8.98
2019-05-15T07:22:34.603Z,8.97
2019-05-15T07:23:34.419Z,9.05
2019-05-15T07:24:34.337Z,9.13
2019-05-15T07:25:34.259Z,9.22
2019-05-15T07:26:34.185Z,9.35
2019-05-15T07:27:34.100Z,9.42
2019-05-15T07:28:34.026Z,9.56
2019-05-15T07:29:33.944Z,9.80
2019-05-15T07:30:33.861Z,10.03
2019-05-15T07:31:33.784Z,10.31
2019-05-15T07:32:33.703Z,10.39
2019-05-15T07:33:39.694Z,10.58
2019-05-15T07:34:33.544Z,10.31
2019-05-15T07:35:33.470Z,10.31
2019-05-15T07:37:33.308Z,10.43
2019-05-15T07:39:33.172Z,10.47
2019-05-15T07:40:33.079Z,10.40
2019-05-15T07:41:32.992Z,10.53
2019-05-15T07:42:32.916Z,10.56
2019-05-15T07:43:32.835Z,10.71
2019-05-15T07:45:25.244Z,10.81
2019-05-15T07:46:25.164Z,10.81
2019-05-15T07:47:29.326Z,10.98
2019-05-15T07:51:48.867Z,11.16
2019-05-15T07:52:48.567Z,11.03
2019-05-15T07:53:48.963Z,10.99
2019-05-15T07:54:48.823Z,11.11
2019-05-15T07:55:50.013Z,11.10
2019-05-15T07:56:48.842Z,11.18
2019-05-15T07:57:49.411Z,11.29
2019-05-15T07:58:52.648Z,11.21
2019-05-15T07:59:48.041Z,11.36
2019-05-15T08:01:29.271Z,11.31
2019-05-15T08:02:29.050Z,11.36
2019-05-15T08:03:31.594Z,11.32
2019-05-15T08:04:33.017Z,11.53
2019-05-15T08:05:28.823Z,11.57
2019-05-15T08:06:29.088Z,11.65
2019-05-15T08:07:28.660Z,11.56
2019-05-15T08:08:29.139Z,11.36
2019-05-15T08:09:31.123Z,11.39
2019-05-15T08:10:31.450Z,11.54
2019-05-15T08:11:31.372Z,11.68
2019-05-15T08:13:38.179Z,11.14
2019-05-15T08:14:38.682Z,11.34
2019-05-15T08:15:38.445Z,11.61
2019-05-15T08:16:35.544Z,11.84
2019-05-15T08:18:48.370Z,11.81
2019-05-15T08:20:30.356Z,11.59
2019-05-15T08:21:30.312Z,11.41
2019-05-15T08:22:30.202Z,11.65
2019-05-15T08:23:32.742Z,11.75
2019-05-15T08:26:25.027Z,11.84
2019-05-15T08:28:08.850Z,11.98
2019-05-15T08:29:08.477Z,11.89
2019-05-15T08:33:38.910Z,11.69
2019-05-15T08:34:34.549Z,11.35
2019-05-15T08:35:34.471Z,11.38
2019-05-15T08:36:34.392Z,11.46
2019-05-15T08:37:34.315Z,11.84
2019-05-15T08:38:34.235Z,11.93
2019-05-15T08:39:34.163Z,11.98
2019-05-15T08:40:40.898Z,12.16
2019-05-15T08:51:39.261Z,12.88
2019-05-15T08:52:39.546Z,12.85
2019-05-15T08:53:38.952Z,12.96
2019-05-15T08:54:38.875Z,13.03
2019-05-15T08:55:39.195Z,12.94
2019-05-15T08:56:41.338Z,12.94
2019-05-15T08:57:38.639Z,12.71
2019-05-15T08:58:38.562Z,12.48
2019-05-15T08:59:38.492Z,12.66
2019-05-15T09:00:40.175Z,12.56
2019-05-15T09:02:28.890Z,12.51
2019-05-15T09:03:25.737Z,12.39
2019-05-15T09:04:33.644Z,12.28
2019-05-15T09:05:25.588Z,12.36
2019-05-15T09:07:38.463Z,12.09
2019-05-15T09:08:39.055Z,11.97
2019-05-15T09:10:38.509Z,12.11
2019-05-15T09:12:38.841Z,12.23
2019-05-15T09:13:43.154Z,12.16
2019-05-15T09:14:38.028Z,12.34
2019-05-15T09:16:39.929Z,12.55
2019-05-15T09:19:09.749Z,13.11
2019-05-15T09:20:09.675Z,13.41
2019-05-15T09:21:09.588Z,13.14
2019-05-15T09:22:58.221Z,12.78
2019-05-15T09:23:58.913Z,12.78
2019-05-15T09:25:49.890Z,12.77
2019-05-15T09:26:49.432Z,12.74
2019-05-15T09:27:49.354Z,12.53
2019-05-15T09:28:49.568Z,12.70
2019-05-15T09:29:49.199Z,12.69
2019-05-15T09:30:49.124Z,12.70
2019-05-15T09:31:49.045Z,12.63
2019-05-15T09:32:48.971Z,12.59
2019-05-15T09:34:48.017Z,12.55
2019-05-15T09:35:36.299Z,12.51
2019-05-15T09:36:36.220Z,12.55
2019-05-15T09:37:38.604Z,12.63
2019-05-15T09:38:36.066Z,12.69
2019-05-15T09:39:38.044Z,12.74
2019-05-15T09:40:45.144Z,12.77
2019-05-15T09:41:37.908Z,12.77
2019-05-15T09:42:38.353Z,12.79
2019-05-15T09:43:38.284Z,13.11
2019-05-15T09:44:35.596Z,13.28
2019-05-15T09:45:37.976Z,13.15
2019-05-15T09:46:35.442Z,13.09
2019-05-15T09:47:35.361Z,13.00
2019-05-15T09:48:35.283Z,13.04
2019-05-15T09:49:35.205Z,13.03
2019-05-15T09:50:35.126Z,12.96
2019-05-15T09:51:35.049Z,13.07
2019-05-15T09:52:34.970Z,13.04
2019-05-15T09:53:34.894Z,13.03
2019-05-15T09:54:34.812Z,13.28
2019-05-15T09:55:34.737Z,13.38
2019-05-15T09:56:34.656Z,13.32
2019-05-15T09:57:34.577Z,13.10
2019-05-15T09:58:34.500Z,13.10
2019-05-15T09:59:34.429Z,13.28
2019-05-15T10:00:34.345Z,13.37
2019-05-15T10:01:34.264Z,13.43
2019-05-15T10:02:34.187Z,13.44
2019-05-15T10:03:34.109Z,13.25
2019-05-15T10:04:34.028Z,13.04
2019-05-15T10:05:33.951Z,13.03
2019-05-15T10:06:33.974Z,12.97
2019-05-15T10:07:33.801Z,13.09
2019-05-15T10:08:33.715Z,13.06
2019-05-15T10:09:33.636Z,12.99
2019-05-15T10:10:33.560Z,12.96
2019-05-15T10:11:33.482Z,13.06
2019-05-15T10:12:35.140Z,13.27
2019-05-15T10:13:33.324Z,13.62
2019-05-15T10:21:33.508Z,13.47
2019-05-15T10:23:15.105Z,13.50
2019-05-15T10:26:20.017Z,13.70
2019-05-15T10:27:19.940Z,13.65
2019-05-15T10:28:19.862Z,13.63
2019-05-15T10:29:19.786Z,13.58
2019-05-15T10:30:19.709Z,13.66
2019-05-15T10:31:19.858Z,13.68
2019-05-15T10:33:02.044Z,13.80
2019-05-15T10:34:01.963Z,13.98
2019-05-15T10:35:01.887Z,13.83
2019-05-15T10:36:01.808Z,13.76
2019-05-15T10:37:01.733Z,13.81
2019-05-15T10:38:01.659Z,13.83
2019-05-15T10:39:01.628Z,13.73
2019-05-15T10:40:01.500Z,13.76
2019-05-15T10:41:08.914Z,13.84
2019-05-15T10:42:01.351Z,13.95
2019-05-15T10:43:01.271Z,13.95
2019-05-15T10:44:01.191Z,14.09
2019-05-15T10:45:01.114Z,14.05
2019-05-15T10:46:01.036Z,14.14
2019-05-15T10:47:00.959Z,13.94
2019-05-15T10:48:00.882Z,13.76
2019-05-15T10:49:00.804Z,13.55
2019-05-15T10:50:00.726Z,13.96
2019-05-15T10:51:06.218Z,14.41
2019-05-15T10:52:00.571Z,14.47
2019-05-15T10:53:00.493Z,14.49
2019-05-15T10:54:00.419Z,14.47
2019-05-15T10:55:00.920Z,14.35
2019-05-15T10:56:02.642Z,14.31
2019-05-15T10:57:00.900Z,14.19
2019-05-15T10:58:00.121Z,14.17
2019-05-15T10:59:00.030Z,14.23
2019-05-15T10:59:59.951Z,14.23
2019-05-15T11:01:01.995Z,14.20
2019-05-15T11:01:59.798Z,14.32
2019-05-15T11:02:59.720Z,14.49
2019-05-15T11:03:59.642Z,14.59
2019-05-15T11:04:59.566Z,14.84
2019-05-15T11:07:02.036Z,15.08
2019-05-15T11:08:01.956Z,14.93
2019-05-15T11:13:09.026Z,14.59
2019-05-15T11:14:10.610Z,14.59
2019-05-15T11:17:33.558Z,14.80
2019-05-15T11:20:41.115Z,15.39
2019-05-15T11:22:45.952Z,15.49
2019-05-15T11:26:08.948Z,15.26
2019-05-15T11:27:11.505Z,15.43
2019-05-15T11:28:08.746Z,15.49
2019-05-15T11:29:09.701Z,15.70
2019-05-15T11:30:08.598Z,15.81
2019-05-15T11:31:10.347Z,15.99
2019-05-15T11:32:08.832Z,15.82
2019-05-15T11:33:09.542Z,15.97
2019-05-15T11:34:09.330Z,15.97
2019-05-15T11:35:08.228Z,15.99
2019-05-15T11:36:08.166Z,15.99
2019-05-15T11:37:08.075Z,16.22
2019-05-15T11:38:10.163Z,16.34
2019-05-15T11:39:08.351Z,16.74
2019-05-15T11:40:10.012Z,17.20
2019-05-15T11:41:08.666Z,17.98
2019-05-15T11:42:08.934Z,18.21
2019-05-15T11:43:08.504Z,18.52
2019-05-15T11:44:07.567Z,18.95
2019-05-15T11:45:49.981Z,18.07
2019-05-15T11:46:49.941Z,18.52
2019-05-15T11:47:49.842Z,18.73
2019-05-15T11:48:50.046Z,18.98
2019-05-15T11:49:49.698Z,19.43
2019-05-15T11:50:49.875Z,19.98
2019-05-15T11:51:49.564Z,20.15
2019-05-15T11:52:49.494Z,20.56
2019-05-15T11:53:49.467Z,20.89
2019-05-15T11:54:49.590Z,19.91
2019-05-15T11:55:49.293Z,19.24
2019-05-15T11:56:49.318Z,19.87
2019-05-15T11:57:52.262Z,20.59
2019-05-15T11:58:49.099Z,20.80
2019-05-15T11:59:55.223Z,21.01
2019-05-15T12:00:49.418Z,20.23
2019-05-15T12:01:49.079Z,19.91
2019-05-15T12:02:48.829Z,19.93
2019-05-15T12:03:48.763Z,20.50
2019-05-15T12:04:48.703Z,20.64
2019-05-15T12:05:48.638Z,20.80
2019-05-15T12:06:58.722Z,21.14
2019-05-15T12:08:48.438Z,21.12
2019-05-15T12:09:50.996Z,20.90
2019-05-15T12:12:13.305Z,19.90
2019-05-15T12:13:13.242Z,19.13
2019-05-15T12:14:13.170Z,18.50
2019-05-15T12:15:13.104Z,18.18
2019-05-15T12:16:13.041Z,18.02
2019-05-15T12:17:15.541Z,17.73
2019-05-15T12:18:12.912Z,17.70
2019-05-15T12:20:12.781Z,18.03
2019-05-15T12:21:12.717Z,18.06
2019-05-15T12:22:12.649Z,18.43
2019-05-15T12:23:12.584Z,18.47
2019-05-15T12:24:12.521Z,18.95
2019-05-15T12:25:12.458Z,18.80
2019-05-15T12:26:12.385Z,18.83
2019-05-15T12:27:17.869Z,18.77
2019-05-15T12:28:12.266Z,19.71
2019-05-15T12:29:12.189Z,20.40
2019-05-15T12:30:12.127Z,20.13
2019-05-15T12:31:12.054Z,20.33
2019-05-15T12:32:28.417Z,20.65
2019-05-15T12:33:11.924Z,20.54
2019-05-15T12:34:11.860Z,20.99
2019-05-15T12:35:59.325Z,21.29
2019-05-15T12:36:59.229Z,20.86
2019-05-15T12:37:59.359Z,20.87
2019-05-15T12:59:41.587Z,19.75
2019-05-15T13:00:26.109Z,19.50
2019-05-15T13:01:26.041Z,19.24
2019-05-15T13:02:27.921Z,18.97
2019-05-15T13:03:25.909Z,19.36
2019-05-15T13:04:28.280Z,19.71
2019-05-15T13:05:28.540Z,20.10
2019-05-15T13:06:28.300Z,20.12
2019-05-15T13:07:25.645Z,19.73
2019-05-15T13:08:25.580Z,20.00
2019-05-15T13:09:27.593Z,20.72
2019-05-15T13:10:25.447Z,21.20
2019-05-15T13:11:25.386Z,21.31
2019-05-15T13:12:25.318Z,21.64
2019-05-15T13:13:25.250Z,21.84
2019-05-15T13:14:28.402Z,22.02
2019-05-15T13:15:25.120Z,21.44
2019-05-15T13:17:18.307Z,21.36
2019-05-15T13:18:18.071Z,20.94
2019-05-15T13:19:18.966Z,20.59
2019-05-15T13:20:18.447Z,20.86
2019-05-15T13:21:20.876Z,21.26
2019-05-15T13:22:19.470Z,21.16
2019-05-15T13:23:17.178Z,20.64
2019-05-15T13:24:19.314Z,20.08
2019-05-15T13:25:18.853Z,20.56
2019-05-15T13:26:24.523Z,20.46
2019-05-15T13:27:18.235Z,21.16
2019-05-15T13:28:18.421Z,21.30
2019-05-15T13:29:18.294Z,20.87
2019-05-15T13:30:18.376Z,21.11
2019-05-15T13:31:18.956Z,21.38
2019-05-15T13:32:16.602Z,21.98
2019-05-15T13:33:16.537Z,22.39
2019-05-15T13:34:19.405Z,22.68
2019-05-15T13:35:18.410Z,22.49
2019-05-15T13:36:16.345Z,22.47
2019-05-15T13:37:26.669Z,21.78
2019-05-15T13:39:18.408Z,21.67
2019-05-15T13:41:18.730Z,21.60
2019-05-15T13:42:18.017Z,21.63
2019-05-15T13:43:15.901Z,22.22
2019-05-15T13:45:18.179Z,22.54
2019-05-15T13:46:58.316Z,22.72
2019-05-15T13:47:58.145Z,22.77
2019-05-15T13:48:59.515Z,22.74
2019-05-15T13:50:40.873Z,23.40
2019-05-15T13:51:40.452Z,23.55
2019-05-15T13:52:40.389Z,23.55
2019-05-15T13:57:20.209Z,21.12
2019-05-15T13:58:20.158Z,19.88
2019-05-15T13:59:20.091Z,19.40
2019-05-15T14:00:20.025Z,19.01
2019-05-15T14:01:19.963Z,19.94
2019-05-15T14:02:22.920Z,20.98
2019-05-15T14:03:19.838Z,21.85
2019-05-15T14:05:45.052Z,23.14
2019-05-15T14:06:42.240Z,22.42
2019-05-15T14:07:49.887Z,22.04
2019-05-15T14:08:42.113Z,21.98
2019-05-15T14:09:44.386Z,21.95
2019-05-15T14:10:41.990Z,21.51
2019-05-15T14:11:41.953Z,20.90
2019-05-15T14:12:41.866Z,21.08
2019-05-15T14:13:41.803Z,21.54
2019-05-15T14:16:04.271Z,22.39
2019-05-15T14:17:09.056Z,22.94
2019-05-15T14:18:08.521Z,22.65
2019-05-15T14:20:04.021Z,22.79
2019-05-15T14:21:03.959Z,23.09
2019-05-15T14:22:03.910Z,23.17
2019-05-15T14:23:03.861Z,22.32
2019-05-15T14:24:03.802Z,22.90
2019-05-15T14:26:18.947Z,22.81
2019-05-15T14:27:59.449Z,22.04
2019-05-15T14:28:58.797Z,21.36
2019-05-15T14:29:58.544Z,21.74
2019-05-15T14:30:58.847Z,21.89
2019-05-15T14:31:58.548Z,22.16
2019-05-15T14:32:59.840Z,21.26
2019-05-15T14:33:58.295Z,20.93
2019-05-15T14:34:58.557Z,21.59
2019-05-15T14:35:58.169Z,21.92
2019-05-15T14:36:59.168Z,21.92
2019-05-15T14:38:05.765Z,22.67
2019-05-15T14:38:58.757Z,22.47
2019-05-15T14:39:58.124Z,21.95
2019-05-15T14:40:59.056Z,21.56
2019-05-15T14:41:58.375Z,20.83
2019-05-15T14:42:59.378Z,21.70
2019-05-15T14:44:01.754Z,21.54
2019-05-15T14:44:59.265Z,21.48
2019-05-15T14:45:58.662Z,21.81
2019-05-15T14:46:58.206Z,22.38
2019-05-15T14:47:58.162Z,22.83
2019-05-15T14:48:58.261Z,23.33
2019-05-15T14:49:58.347Z,22.96
2019-05-15T14:50:58.386Z,22.28
2019-05-15T14:52:05.751Z,22.34
2019-05-15T14:52:58.585Z,22.71